(°C)
12°
11°
10°
(°C)
-1°
-2°
ΝΔ
ΝΔ
Δ
ΔΒΔ
ΔΒΔ
ΔΒΔ
ΔΒΔ
(χλμ / ω)
32-57
29-53
26-48
23-44
22-43
22-43
21-43
(χιλιοστά)
0
0.6
1.2
1.6
1.2
0.5
0
(%)
36
53
64
75
56
37
16

Ανύψωση ήλιου

/ -62.9°
sun-icon
UV 1
06:51
16:12
Αύξων μηνίσκος (φάση σελήνης) (31°)
09:39
18:34

METAR για Barnstable (KHYA)

Χρόνος Συνθήκες Θερμοκρασία/
Σημείο δρόσου
Άνεμος Ορατότητα Καιρός Νέφη Πίεση Αλλαγή Ανεπεξέργαστο
IFR 13.9°C / 13.3°C 200º variable 004º to 008º 18kt Gust 26kt 9700m Mist Vertical Visibility of 0ft.
Overcast 1000ft
1002 - KHYA 070156Z 20018G26KT 6SM BR BKN005 OVC010 14/13 A2959 RMK AO2 PK WND 19029/0101 CIG 004V008 SLP021 T01390133
IFR 13.9°C / 13.3°C 200º variable 004º to 008º 15kt Gust 23kt 9700m Mist Vertical Visibility of 0ft.
Broken Clouds 1200ft
Overcast 2100ft
- KHYA 070146Z 20015G23KT 6SM BR BKN005 BKN012 OVC021 14/13 A2960 RMK AO2 PK WND 19029/0101 CIG 004V008 T01390133
MVFR 13.3°C / 13.3°C 200º 15kt Gust 29kt >10km - Scattered Clouds 700ft
Broken Clouds 1400ft
Overcast 2200ft
- KHYA 070135Z 20015G29KT 7SM SCT007 BKN014 OVC022 13/13 A2960 RMK AO2 PK WND 19029/0101 T01330133
MVFR 13.9°C / 13.9°C 200º 18kt Gust 29kt >10km - Scattered Clouds 400ft
Broken Clouds 2500ft
Overcast 3400ft
- KHYA 070107Z 20018G29KT 7SM SCT004 BKN025 OVC034 14/14 A2960 RMK AO2 PK WND 19029/0101 T01390139
LIFR 13.9°C / 13.9°C 200º 17kt Gust 28kt >10km - Broken Clouds 400ft
Broken Clouds 2100ft
Overcast 2600ft
1002 - KHYA 070056Z 20017G28KT 7SM BKN004 BKN021 OVC026 14/14 A2960 RMK AO2 PK WND 20030/0044 SLP023 T01390139
LIFR 12.8°C / 12.2°C 190º 16kt Gust 26kt 9700m Mist Vertical Visibility of 0ft.
Broken Clouds 900ft
- KHYA 070019Z 19016G26KT 6SM BR BKN004 BKN009 13/12 A2961 RMK AO2 PK WND 20026/0016 T01280122
MVFR 12.8°C / 12.2°C 190º 15kt Gust 26kt >10km - Few Clouds 500ft
Broken Clouds 1000ft
- KHYA 070005Z 19015G26KT 7SM FEW005 BKN010 13/12 A2963 RMK AO2 PK WND 18026/2358 T01280122
VFR 13.3°C / 12.2°C 190º 16kt Gust 25kt >10km - Few Clouds 3000ft
Scattered Clouds 3700ft
1003 - KHYA 062356Z 19016G25KT 8SM FEW030 SCT037 13/12 A2963 RMK AO2 SLP035 T01330122 10139 20117 56049
VFR 13.3°C / 11.7°C 190º 13kt Gust 21kt >10km - Scattered Clouds 2800ft
Broken Clouds 3600ft
Broken Clouds 4800ft
1005 - KHYA 062256Z 19013G21KT 8SM SCT028 BKN036 BKN048 13/12 A2969 RMK AO2 PK WND 19027/2232 SLP055 T01330117
MVFR 13.3°C / 11.7°C 190º 17kt Gust 25kt >10km - Broken Clouds 2800ft
Overcast 3800ft
- KHYA 062243Z 19017G25KT 9SM BKN028 OVC038 13/12 A2970 RMK AO2 PK WND 19027/2232 T01330117
VFR 12.8°C / 11.7°C 190º 12kt Gust 21kt >10km - Clear 1006 - KHYA 062156Z 19012G21KT 8SM CLR 13/12 A2972 RMK AO2 PRESFR SLP064 T01280117
MVFR 12.2°C / 11.1°C 190º 11kt 8000m Mist Vertical Visibility of 0ft. 1008 - KHYA 062056Z 19011KT 5SM BR CLR 12/11 A2978 RMK AO2 SLP085 T01220111 56015
MVFR 11.7°C / 10.6°C 180º 9kt 8000m Mist Vertical Visibility of 0ft. - KHYA 062008Z 18009KT 5SM BR SCT003 12/11 A2979 RMK AO2 T01170106
LIFR 11.7°C / 10.6°C 190º 9kt 8000m Mist Vertical Visibility of 0ft.
Overcast 800ft
1009 - KHYA 061956Z 19009KT 5SM BR BKN004 OVC008 12/11 A2980 RMK AO2 SLP092 T01170106
IFR 11.7°C / 10.6°C 180º 8kt 8000m Mist Vertical Visibility of 0ft. - KHYA 061945Z 18008KT 5SM BR BKN005 12/11 A2981 RMK AO2 T01170106
VFR 12.2°C / 11.1°C 190º 9kt 9700m Mist Vertical Visibility of 0ft. - KHYA 061934Z 19009KT 6SM BR SCT005 12/11 A2981 RMK AO2 T01220111
VFR 12.8°C / 11.1°C 200º 12kt >10km - Clear 1010 - KHYA 061856Z 20012KT 8SM CLR 13/11 A2982 RMK AO2 SLP100 T01280111
MVFR 13.9°C / 12.2°C 210º 15kt >10km - Overcast 1000ft 1010 - KHYA 061756Z 21015KT 9SM OVC010 14/12 A2984 RMK AO2 SLP105 60000 T01390122 10139 20106 58032
MVFR 13.9°C / 12.8°C 200º 13kt Gust 20kt 9700m Mist Vertical Visibility of 0ft. 1011 - KHYA 061656Z 20013G20KT 6SM BR OVC012 14/13 A2987 RMK AO2 SLP115 T01390128
IFR 12.8°C / 11.7°C 200º 12kt 9700m Mist Vertical Visibility of 0ft.
Broken Clouds 1900ft
Overcast 2600ft
- KHYA 061603Z 20012KT 6SM BR BKN006 BKN019 OVC026 13/12 A2991 RMK AO2 T01280117
LIFR 12.8°C / 12.2°C 190º 11kt Gust 20kt 6400m Mist Vertical Visibility of 0ft. 1013 - KHYA 061456Z 19011G20KT 4SM BR BKN004 13/12 A2993 RMK AO2 SLP137 60000 T01280122 56039
IFR 12.2°C / 11.7°C 160º variable 004º to 009º 9kt Gust 15kt 8000m Mist Vertical Visibility of 0ft. 1015 - KHYA 061356Z 16009G15KT 5SM BR OVC006 12/12 A2997 RMK AO2 CIG 004V009 SLP150 T01220117
IFR 12.2°C / 11.7°C 150º variable 120º to 180º 9kt Gust 20kt 8000m Mist Vertical Visibility of 0ft.
Overcast 5000ft
- KHYA 061335Z 15009G20KT 120V180 5SM BR BKN008 OVC050 12/12 A2998 RMK AO2 T01220117
MVFR 12.2°C / 11.1°C 150º 12kt Gust 21kt >10km 0.13mm precipitation Broken Clouds 1200ft
Broken Clouds 5500ft
Overcast 8000ft
1015 - KHYA 061256Z 15012G21KT 8SM BKN012 BKN055 OVC080 12/11 A3000 RMK AO2 RAB33E43 SLP159 P0000 T01220111

IFR

13.9°C / 13.3°C

[Περισσότερο]
Άνεμος 200º variable 004º to 008º 18kt Gust 26kt
Ορατότητα 9700m
Καιρός Mist
Νέφη Vertical Visibility of 0ft.
Overcast 1000ft
Πίεση 1002
Αλλαγή -
Ανεπεξέργαστο KHYA 070156Z 20018G26KT 6SM BR BKN005 OVC010 14/13 A2959 RMK AO2 PK WND 19029/0101 CIG 004V008 SLP021 T01390133

IFR

13.9°C / 13.3°C

[Περισσότερο]
Άνεμος 200º variable 004º to 008º 15kt Gust 23kt
Ορατότητα 9700m
Καιρός Mist
Νέφη Vertical Visibility of 0ft.
Broken Clouds 1200ft
Overcast 2100ft
Πίεση
Αλλαγή -
Ανεπεξέργαστο KHYA 070146Z 20015G23KT 6SM BR BKN005 BKN012 OVC021 14/13 A2960 RMK AO2 PK WND 19029/0101 CIG 004V008 T01390133

MVFR

13.3°C / 13.3°C

[Περισσότερο]
Άνεμος 200º 15kt Gust 29kt
Ορατότητα >10km
Καιρός -
Νέφη Scattered Clouds 700ft
Broken Clouds 1400ft
Overcast 2200ft
Πίεση
Αλλαγή -
Ανεπεξέργαστο KHYA 070135Z 20015G29KT 7SM SCT007 BKN014 OVC022 13/13 A2960 RMK AO2 PK WND 19029/0101 T01330133

MVFR

13.9°C / 13.9°C

[Περισσότερο]
Άνεμος 200º 18kt Gust 29kt
Ορατότητα >10km
Καιρός -
Νέφη Scattered Clouds 400ft
Broken Clouds 2500ft
Overcast 3400ft
Πίεση
Αλλαγή -
Ανεπεξέργαστο KHYA 070107Z 20018G29KT 7SM SCT004 BKN025 OVC034 14/14 A2960 RMK AO2 PK WND 19029/0101 T01390139

LIFR

13.9°C / 13.9°C

[Περισσότερο]
Άνεμος 200º 17kt Gust 28kt
Ορατότητα >10km
Καιρός -
Νέφη Broken Clouds 400ft
Broken Clouds 2100ft
Overcast 2600ft
Πίεση 1002
Αλλαγή -
Ανεπεξέργαστο KHYA 070056Z 20017G28KT 7SM BKN004 BKN021 OVC026 14/14 A2960 RMK AO2 PK WND 20030/0044 SLP023 T01390139

LIFR

12.8°C / 12.2°C

[Περισσότερο]
Άνεμος 190º 16kt Gust 26kt
Ορατότητα 9700m
Καιρός Mist
Νέφη Vertical Visibility of 0ft.
Broken Clouds 900ft
Πίεση
Αλλαγή -
Ανεπεξέργαστο KHYA 070019Z 19016G26KT 6SM BR BKN004 BKN009 13/12 A2961 RMK AO2 PK WND 20026/0016 T01280122

MVFR

12.8°C / 12.2°C

[Περισσότερο]
Άνεμος 190º 15kt Gust 26kt
Ορατότητα >10km
Καιρός -
Νέφη Few Clouds 500ft
Broken Clouds 1000ft
Πίεση
Αλλαγή -
Ανεπεξέργαστο KHYA 070005Z 19015G26KT 7SM FEW005 BKN010 13/12 A2963 RMK AO2 PK WND 18026/2358 T01280122

VFR

13.3°C / 12.2°C

[Περισσότερο]
Άνεμος 190º 16kt Gust 25kt
Ορατότητα >10km
Καιρός -
Νέφη Few Clouds 3000ft
Scattered Clouds 3700ft
Πίεση 1003
Αλλαγή -
Ανεπεξέργαστο KHYA 062356Z 19016G25KT 8SM FEW030 SCT037 13/12 A2963 RMK AO2 SLP035 T01330122 10139 20117 56049

VFR

13.3°C / 11.7°C

[Περισσότερο]
Άνεμος 190º 13kt Gust 21kt
Ορατότητα >10km
Καιρός -
Νέφη Scattered Clouds 2800ft
Broken Clouds 3600ft
Broken Clouds 4800ft
Πίεση 1005
Αλλαγή -
Ανεπεξέργαστο KHYA 062256Z 19013G21KT 8SM SCT028 BKN036 BKN048 13/12 A2969 RMK AO2 PK WND 19027/2232 SLP055 T01330117

MVFR

13.3°C / 11.7°C

[Περισσότερο]
Άνεμος 190º 17kt Gust 25kt
Ορατότητα >10km
Καιρός -
Νέφη Broken Clouds 2800ft
Overcast 3800ft
Πίεση
Αλλαγή -
Ανεπεξέργαστο KHYA 062243Z 19017G25KT 9SM BKN028 OVC038 13/12 A2970 RMK AO2 PK WND 19027/2232 T01330117

VFR

12.8°C / 11.7°C

[Περισσότερο]
Άνεμος 190º 12kt Gust 21kt
Ορατότητα >10km
Καιρός -
Νέφη Clear
Πίεση 1006
Αλλαγή -
Ανεπεξέργαστο KHYA 062156Z 19012G21KT 8SM CLR 13/12 A2972 RMK AO2 PRESFR SLP064 T01280117

MVFR

12.2°C / 11.1°C

[Περισσότερο]
Άνεμος 190º 11kt
Ορατότητα 8000m
Καιρός Mist
Νέφη Vertical Visibility of 0ft.
Πίεση 1008
Αλλαγή -
Ανεπεξέργαστο KHYA 062056Z 19011KT 5SM BR CLR 12/11 A2978 RMK AO2 SLP085 T01220111 56015

MVFR

11.7°C / 10.6°C

[Περισσότερο]
Άνεμος 180º 9kt
Ορατότητα 8000m
Καιρός Mist
Νέφη Vertical Visibility of 0ft.
Πίεση
Αλλαγή -
Ανεπεξέργαστο KHYA 062008Z 18009KT 5SM BR SCT003 12/11 A2979 RMK AO2 T01170106

LIFR

11.7°C / 10.6°C

[Περισσότερο]
Άνεμος 190º 9kt
Ορατότητα 8000m
Καιρός Mist
Νέφη Vertical Visibility of 0ft.
Overcast 800ft
Πίεση 1009
Αλλαγή -
Ανεπεξέργαστο KHYA 061956Z 19009KT 5SM BR BKN004 OVC008 12/11 A2980 RMK AO2 SLP092 T01170106

IFR

11.7°C / 10.6°C

[Περισσότερο]
Άνεμος 180º 8kt
Ορατότητα 8000m
Καιρός Mist
Νέφη Vertical Visibility of 0ft.
Πίεση
Αλλαγή -
Ανεπεξέργαστο KHYA 061945Z 18008KT 5SM BR BKN005 12/11 A2981 RMK AO2 T01170106

VFR

12.2°C / 11.1°C

[Περισσότερο]
Άνεμος 190º 9kt
Ορατότητα 9700m
Καιρός Mist
Νέφη Vertical Visibility of 0ft.
Πίεση
Αλλαγή -
Ανεπεξέργαστο KHYA 061934Z 19009KT 6SM BR SCT005 12/11 A2981 RMK AO2 T01220111

VFR

12.8°C / 11.1°C

[Περισσότερο]
Άνεμος 200º 12kt
Ορατότητα >10km
Καιρός -
Νέφη Clear
Πίεση 1010
Αλλαγή -
Ανεπεξέργαστο KHYA 061856Z 20012KT 8SM CLR 13/11 A2982 RMK AO2 SLP100 T01280111

MVFR

13.9°C / 12.2°C

[Περισσότερο]
Άνεμος 210º 15kt
Ορατότητα >10km
Καιρός -
Νέφη Overcast 1000ft
Πίεση 1010
Αλλαγή -
Ανεπεξέργαστο KHYA 061756Z 21015KT 9SM OVC010 14/12 A2984 RMK AO2 SLP105 60000 T01390122 10139 20106 58032

MVFR

13.9°C / 12.8°C

[Περισσότερο]
Άνεμος 200º 13kt Gust 20kt
Ορατότητα 9700m
Καιρός Mist
Νέφη Vertical Visibility of 0ft.
Πίεση 1011
Αλλαγή -
Ανεπεξέργαστο KHYA 061656Z 20013G20KT 6SM BR OVC012 14/13 A2987 RMK AO2 SLP115 T01390128

IFR

12.8°C / 11.7°C

[Περισσότερο]
Άνεμος 200º 12kt
Ορατότητα 9700m
Καιρός Mist
Νέφη Vertical Visibility of 0ft.
Broken Clouds 1900ft
Overcast 2600ft
Πίεση
Αλλαγή -
Ανεπεξέργαστο KHYA 061603Z 20012KT 6SM BR BKN006 BKN019 OVC026 13/12 A2991 RMK AO2 T01280117

LIFR

12.8°C / 12.2°C

[Περισσότερο]
Άνεμος 190º 11kt Gust 20kt
Ορατότητα 6400m
Καιρός Mist
Νέφη Vertical Visibility of 0ft.
Πίεση 1013
Αλλαγή -
Ανεπεξέργαστο KHYA 061456Z 19011G20KT 4SM BR BKN004 13/12 A2993 RMK AO2 SLP137 60000 T01280122 56039

IFR

12.2°C / 11.7°C

[Περισσότερο]
Άνεμος 160º variable 004º to 009º 9kt Gust 15kt
Ορατότητα 8000m
Καιρός Mist
Νέφη Vertical Visibility of 0ft.
Πίεση 1015
Αλλαγή -
Ανεπεξέργαστο KHYA 061356Z 16009G15KT 5SM BR OVC006 12/12 A2997 RMK AO2 CIG 004V009 SLP150 T01220117

IFR

12.2°C / 11.7°C

[Περισσότερο]
Άνεμος 150º variable 120º to 180º 9kt Gust 20kt
Ορατότητα 8000m
Καιρός Mist
Νέφη Vertical Visibility of 0ft.
Overcast 5000ft
Πίεση
Αλλαγή -
Ανεπεξέργαστο KHYA 061335Z 15009G20KT 120V180 5SM BR BKN008 OVC050 12/12 A2998 RMK AO2 T01220117

MVFR

12.2°C / 11.1°C

[Περισσότερο]
Άνεμος 150º 12kt Gust 21kt
Ορατότητα >10km
Καιρός 0.13mm precipitation
Νέφη Broken Clouds 1200ft
Broken Clouds 5500ft
Overcast 8000ft
Πίεση 1015
Αλλαγή -
Ανεπεξέργαστο KHYA 061256Z 15012G21KT 8SM BKN012 BKN055 OVC080 12/11 A3000 RMK AO2 RAB33E43 SLP159 P0000 T01220111

TAF για Barnstable (KHYA)

From till


From till Wind 190º 13kt. Gust 21kt. Wind Shear at 2000ft with winds 210º 55kt. Visibility 10km or more. Scattered Clouds 2800ft. Broken Clouds 3500ft.
From till Wind 210º 21kt. Gust 37kt. Wind Shear at 2000ft with winds 220º 55kt. Visibility 8000m. Mist in the Vicinity Showers . Overcast 1000ft.
From till Wind 240º 19kt. Gust 37kt. Visibility 10km or more. Light Showers Rain . Overcast 2000ft.
From till Wind 260º 18kt. Gust 35kt. Visibility 10km or more. in the Vicinity Showers . Overcast 3500ft.
From till Wind 290º 15kt. Gust 32kt. Visibility 10km or more. Overcast 10000ft.
From till Wind 300º 6kt. Visibility 10km or more. Scattered Clouds 20000ft.

Ανεπεξέργαστο: KHYA 062321Z 0700/0724 19013G21KT P6SM SCT028 BKN035 WS020/21055KT FM070200 21021G37KT 5SM BR VCSH OVC010 WS020/22055KT FM070400 24019G37KT P6SM -SHRA OVC020 FM070500 26018G35KT P6SM VCSH OVC035 FM070700 29015G32KT P6SM OVC100 FM072300 30006KT P6SM SCT200

Ραντάρ και πρόγνωση υετού μικρής δειάρκειας για Barnstable

Ψιλοβρέχει
Φως
Μέτρια
Βαριά
Πολύ βαρύ
Χαλάζι

Ο δείκτης θέσης τοποθετείται στο Barnstable. Αυτή η κινούμενη εικόνα δείχνει την ραντάρ βροχόπτωσης για την τελευταία ώρα, καθώς και 1πρόγνωση h. Το ψιλόβροχο ή το ελαφρύ χιόνι μπορεί να είναι αόρατο για το ραντάρ. Η ένταση της βροχόπτωσης είναι χρωματικά κωδικοποιημένη και κυμαίνεται από γαλάζιο έως πορτοκαλί.

Τρέχουσες εικόνες δορυφόρου για Barnstable, Ηνωμένες Πολιτείες της Αμερικής

Η ένδειξη τοποθεσίας τοποθετείται στο Barnstable. [Περισσότερο]

Οι δορυφορικές εικόνες σε πραγματικό χρόνο συνδυάζουν ορατό φως κατά τη διάρκεια της ημέρας με υπέρυθρη ακτινοβολία κατά τη διάρκεια της νύχτας. Κατά τη διάρκεια της νύχτας, η εικόνα δεν είναι σκοτεινή μιας και η υπέρυθρη ακτινοβολία μπορεί να εντοπίσει τις διαφορές στη θερμοκρασία. Δυστυχώς, είναι δύσκολο να ξεχωρίσουν οι χαμηλές νεφώσεις και η ομίχλη από τις θερμοκρασίες εδάφους και έτσι μπορεί να είναι σχετικά αόρατα κατά τη διάρκεια της νύχτας. Οι εικόνες από τον δορυφόρο Meteosat για την Ευρώπη ενημερώνονται σε πραγματικό χρόνο κάθε 5 λεπτά. Οι εικόνες από τους δορυφόρους GOES-16/GOES-17 (Βόρεια & Λατινική Αμερική) και Himawari (Ασία) ενημερώνονται κάθε 10 λεπτά.